Meraux, Louisiana
Current Conditions -  °F | °C
As of 5:55 PM on Wednesday 22 Oct 2014 (Local Time) from KNBG Reporting Station
Clear Clear  
Wind Chill: 73°   Ceiling: Unl
Heat Index: 73°   Visibility: 10mi
Dew Point: 55°   Wind: 5mph
Humidity: 53%   Direction: 50°NE
Pressure: 30.02"   Gusts: NA
Location:  29.92°N, 89.91°W
Report Text: KNBG 222255Z 05004KT 10SM CLR 23/13 A3002 RMK AO2 SLP165 T02280128 $
Loading
Personal Weather Stations






























Interactive Weather Map
Tropical Storm Tracking
New forecast layout! Learn more

10-Day Weather Forecast

Advertisements
Track Severe Weather on mobile